Time;durP1;ratioP1;P1;durP2;ratioP2;P2;SDS_P1;SDS_P2;PMS_P1;PMS_P2;Temp;Humidity;BMP_temperature;BMP_pressure;BME280_temperature;BME280_humidity;BME280_pressure;Samples;Min_cycle;Max_cycle;Signal;HPM_P1;HPM_P2
2023/10/29 00:00:28;;;;;;;9.90;9.60;;;11.00;99.90;;;;;;5086832;28;20244;-83
2023/10/29 00:02:56;;;;;;;10.20;9.90;;;11.00;99.90;;;;;;5085824;28;20265;-82
2023/10/29 00:05:23;;;;;;;10.10;9.80;;;11.00;99.90;;;;;;5086335;28;20241;-83
2023/10/29 00:07:50;;;;;;;10.17;9.87;;;10.90;99.90;;;;;;5088710;28;20238;-82
2023/10/29 00:10:19;;;;;;;10.27;9.97;;;11.00;99.90;;;;;;5090046;28;20291;-83
2023/10/29 00:12:46;;;;;;;10.10;9.80;;;11.00;99.90;;;;;;5088512;28;20260;-82
2023/10/29 00:15:13;;;;;;;10.10;9.80;;;10.90;99.90;;;;;;5088867;28;20316;-83
2023/10/29 00:17:40;;;;;;;10.17;9.87;;;11.00;99.90;;;;;;5088451;28;20226;-82
2023/10/29 00:20:08;;;;;;;10.40;10.10;;;11.00;99.90;;;;;;5088239;28;20234;-83
2023/10/29 00:22:35;;;;;;;10.10;9.80;;;11.00;99.90;;;;;;5087892;28;20253;-83
2023/10/29 00:25:03;;;;;;;10.20;9.90;;;11.00;99.90;;;;;;5087365;28;20233;-82
2023/10/29 00:27:31;;;;;;;10.27;9.97;;;11.00;99.90;;;;;;5087496;28;20234;-83
2023/10/29 00:29:58;;;;;;;10.20;9.90;;;11.00;99.90;;;;;;5090841;28;20242;-83
2023/10/29 00:32:26;;;;;;;9.90;9.60;;;11.00;99.90;;;;;;5089770;28;20393;-84
2023/10/29 00:34:53;;;;;;;10.20;9.90;;;11.00;99.90;;;;;;5088342;28;20222;-82
2023/10/29 00:37:20;;;;;;;10.10;9.80;;;11.00;99.90;;;;;;5086939;28;20256;-83
2023/10/29 00:39:47;;;;;;;10.10;9.80;;;11.00;99.90;;;;;;5090154;28;20225;-82
2023/10/29 00:42:14;;;;;;;10.40;10.10;;;11.00;99.90;;;;;;5088256;28;20230;-83
2023/10/29 00:44:43;;;;;;;10.30;10.00;;;11.00;99.90;;;;;;5103874;28;20237;-83
2023/10/29 00:47:10;;;;;;;10.20;9.90;;;11.00;99.90;;;;;;5088586;28;20253;-83
2023/10/29 00:49:38;;;;;;;10.30;10.00;;;11.00;99.90;;;;;;5087924;28;20308;-82
2023/10/29 00:52:05;;;;;;;10.40;10.10;;;11.00;99.90;;;;;;5091635;28;20234;-83
2023/10/29 00:54:33;;;;;;;10.30;10.00;;;11.00;99.90;;;;;;5091071;28;20233;-83
2023/10/29 00:57:01;;;;;;;10.17;9.87;;;10.90;99.90;;;;;;5085676;28;20214;-82
2023/10/29 00:59:31;;;;;;;10.43;10.13;;;10.90;99.90;;;;;;5087422;28;20268;-85
2023/10/29 01:02:00;;;;;;;10.40;10.10;;;11.00;99.90;;;;;;5087337;28;20233;-83
2023/10/29 01:04:27;;;;;;;10.47;10.17;;;11.00;99.90;;;;;;5087815;28;20237;-83
2023/10/29 01:06:54;;;;;;;10.33;10.03;;;11.00;99.90;;;;;;5088843;28;20237;-83
2023/10/29 01:09:22;;;;;;;10.47;10.17;;;11.00;99.90;;;;;;5088351;28;20230;-82
2023/10/29 01:11:49;;;;;;;10.20;9.90;;;10.90;99.90;;;;;;5086798;28;20242;-81
2023/10/29 01:14:16;;;;;;;10.40;10.10;;;10.90;99.90;;;;;;5087959;28;20218;-83
2023/10/29 01:16:43;;;;;;;10.33;10.03;;;10.90;99.90;;;;;;5087509;28;20230;-83
2023/10/29 01:19:12;;;;;;;10.40;10.10;;;10.90;99.90;;;;;;5087566;28;20316;-83
2023/10/29 01:21:39;;;;;;;10.30;10.00;;;10.90;99.90;;;;;;5087405;28;20226;-84
2023/10/29 01:24:08;;;;;;;10.50;10.20;;;10.80;99.90;;;;;;5087634;28;20284;-83
2023/10/29 01:26:35;;;;;;;10.30;10.00;;;10.80;99.90;;;;;;5087908;28;20241;-83
2023/10/29 01:29:04;;;;;;;10.47;10.17;;;10.80;99.90;;;;;;5087981;28;20234;-82
2023/10/29 01:31:31;;;;;;;10.40;10.10;;;10.80;99.90;;;;;;5086994;28;20238;-82
2023/10/29 01:33:58;;;;;;;10.40;10.10;;;10.80;99.90;;;;;;5087837;28;20226;-82
2023/10/29 01:36:27;;;;;;;10.30;10.00;;;10.90;99.90;;;;;;5088678;28;20226;-83
2023/10/29 01:38:54;;;;;;;10.40;10.10;;;10.90;99.90;;;;;;5089120;28;20234;-82
2023/10/29 01:41:22;;;;;;;10.30;10.00;;;10.90;99.90;;;;;;5086683;28;20281;-83
2023/10/29 01:43:51;;;;;;;10.23;9.93;;;10.90;99.90;;;;;;5087120;28;20225;-83
2023/10/29 01:46:18;;;;;;;10.30;10.00;;;10.90;99.90;;;;;;5088934;28;20260;-83
2023/10/29 01:48:45;;;;;;;10.20;9.90;;;11.00;99.90;;;;;;5087644;28;20237;-82
2023/10/29 01:51:12;;;;;;;10.10;9.80;;;11.00;99.90;;;;;;5090291;28;20218;-83
2023/10/29 01:53:41;;;;;;;10.17;9.87;;;11.00;99.90;;;;;;5088008;28;20249;-82
2023/10/29 01:56:09;;;;;;;10.20;9.90;;;10.90;99.90;;;;;;5088121;28;20279;-81
2023/10/29 01:58:36;;;;;;;10.10;9.80;;;10.90;99.90;;;;;;5090088;28;20285;-82
2023/10/29 02:01:10;;;;;;;10.40;10.10;;;11.00;99.90;;;;;;5088277;28;20233;-82
2023/10/29 02:03:38;;;;;;;10.47;10.17;;;10.90;99.90;;;;;;5089301;28;20292;-82
2023/10/29 02:06:05;;;;;;;10.30;10.00;;;11.00;99.90;;;;;;5088465;28;20237;-84
2023/10/29 02:08:33;;;;;;;10.30;10.00;;;11.00;99.90;;;;;;5090733;28;20238;-83
2023/10/29 02:11:02;;;;;;;10.27;9.97;;;11.00;99.90;;;;;;5091323;28;20226;-82
2023/10/29 02:13:29;;;;;;;10.20;9.90;;;11.00;99.90;;;;;;5090413;28;20222;-83
2023/10/29 02:15:56;;;;;;;10.50;10.20;;;11.00;99.90;;;;;;5091877;28;20256;-83
2023/10/29 02:18:23;;;;;;;10.40;10.10;;;11.00;99.90;;;;;;5090286;28;20260;-82
2023/10/29 02:20:50;;;;;;;10.27;9.97;;;11.00;99.90;;;;;;5089632;28;20218;-81
2023/10/29 02:23:19;;;;;;;10.30;10.00;;;11.10;99.90;;;;;;5090728;28;20226;-81
2023/10/29 02:25:47;;;;;;;10.30;10.00;;;11.10;99.90;;;;;;5090049;28;20265;-82
2023/10/29 02:28:14;;;;;;;10.33;10.03;;;11.10;99.90;;;;;;5096530;28;20226;-82
2023/10/29 02:30:41;;;;;;;10.27;9.97;;;11.10;99.90;;;;;;5099752;28;20222;-82
2023/10/29 02:33:09;;;;;;;10.20;9.90;;;11.20;99.90;;;;;;5098845;28;20206;-82
2023/10/29 02:35:36;;;;;;;10.20;9.90;;;11.20;99.90;;;;;;5099046;28;20213;-81
2023/10/29 02:38:03;;;;;;;10.07;9.77;;;11.20;99.90;;;;;;5098952;28;20234;-82
2023/10/29 02:40:31;;;;;;;10.13;9.83;;;11.20;99.90;;;;;;5098029;28;20237;-82
2023/10/29 02:42:58;;;;;;;10.10;9.80;;;11.20;99.90;;;;;;5097492;28;20210;-82
2023/10/29 02:45:25;;;;;;;10.20;9.90;;;11.10;99.90;;;;;;5097892;28;20233;-82
2023/10/29 02:47:54;;;;;;;10.13;9.83;;;11.10;99.90;;;;;;5096428;28;20214;-81
2023/10/29 02:50:21;;;;;;;10.03;9.73;;;11.10;99.90;;;;;;5096043;28;20285;-83
2023/10/29 02:52:48;;;;;;;10.30;10.00;;;11.10;99.90;;;;;;5097518;28;20246;-82
2023/10/29 02:55:15;;;;;;;10.30;10.00;;;11.10;99.90;;;;;;5098354;28;20229;-82
2023/10/29 02:57:44;;;;;;;10.20;9.90;;;11.10;99.90;;;;;;5098427;28;20241;-79
2023/10/29 03:00:12;;;;;;;10.40;10.10;;;11.10;99.90;;;;;;5098313;28;20206;-80
2023/10/29 03:02:39;;;;;;;10.00;9.70;;;11.10;99.90;;;;;;5094685;28;20230;-82
2023/10/29 03:05:10;;;;;;;10.13;9.83;;;11.10;99.90;;;;;;5097030;28;20222;-82
2023/10/29 03:07:37;;;;;;;10.10;9.80;;;11.20;99.90;;;;;;5093762;28;20281;-82
2023/10/29 03:10:06;;;;;;;10.20;9.90;;;11.10;99.90;;;;;;5093510;28;20237;-81
2023/10/29 03:12:33;;;;;;;10.13;9.83;;;11.20;99.90;;;;;;5087781;28;20280;-82
2023/10/29 03:15:02;;;;;;;10.10;9.80;;;11.10;99.90;;;;;;5093801;28;20230;-82
2023/10/29 03:17:29;;;;;;;10.30;10.00;;;11.10;99.90;;;;;;5094871;28;20246;-82
2023/10/29 03:19:56;;;;;;;10.07;9.77;;;11.10;99.90;;;;;;5093260;28;20256;-82
2023/10/29 03:22:23;;;;;;;10.10;9.80;;;11.10;99.90;;;;;;5096295;28;20210;-82
2023/10/29 03:24:51;;;;;;;10.20;9.90;;;11.10;99.90;;;;;;5090030;28;20237;-82
2023/10/29 03:27:18;;;;;;;10.20;9.90;;;11.00;99.90;;;;;;5089776;28;20233;-82
2023/10/29 03:29:45;;;;;;;9.97;9.67;;;11.00;99.90;;;;;;5089044;28;20234;-81
2023/10/29 03:32:13;;;;;;;10.00;9.70;;;11.00;99.90;;;;;;5084584;28;20230;-82
2023/10/29 03:34:41;;;;;;;10.10;9.80;;;10.90;99.90;;;;;;5084665;28;20234;-82
2023/10/29 03:37:08;;;;;;;10.30;10.00;;;10.90;99.90;;;;;;5085330;28;20337;-82
2023/10/29 03:39:35;;;;;;;9.97;9.67;;;10.90;99.90;;;;;;5084210;28;20277;-82
2023/10/29 03:42:03;;;;;;;10.00;9.70;;;10.90;99.90;;;;;;5084119;28;20230;-82
2023/10/29 03:44:30;;;;;;;10.00;9.70;;;10.90;99.90;;;;;;5084529;28;20238;-82
2023/10/29 03:46:57;;;;;;;10.07;9.77;;;10.90;99.90;;;;;;5086910;28;20264;-83
2023/10/29 03:49:26;;;;;;;10.10;9.80;;;10.90;99.90;;;;;;5090426;28;20237;-82
2023/10/29 03:51:53;;;;;;;10.00;9.70;;;10.90;99.90;;;;;;5091184;28;20237;-82
2023/10/29 03:54:20;;;;;;;10.07;9.77;;;10.90;99.90;;;;;;5103087;28;20217;-83
2023/10/29 03:56:47;;;;;;;9.97;9.67;;;10.90;99.90;;;;;;5095286;28;20320;-82
2023/10/29 03:59:14;;;;;;;10.07;9.77;;;10.80;99.90;;;;;;5090389;28;20230;-83
2023/10/29 04:01:41;;;;;;;10.10;9.80;;;10.80;99.90;;;;;;5087659;28;20230;-80
2023/10/29 04:04:09;;;;;;;10.00;9.70;;;10.80;99.90;;;;;;5086681;28;20230;-82
2023/10/29 04:06:37;;;;;;;9.80;9.50;;;10.80;99.90;;;;;;5086105;28;20241;-82
2023/10/29 04:09:05;;;;;;;10.00;9.70;;;10.70;99.90;;;;;;5085176;28;20253;-83
2023/10/29 04:11:32;;;;;;;10.00;9.70;;;10.70;99.90;;;;;;5085350;28;20282;-82
2023/10/29 04:13:59;;;;;;;9.80;9.50;;;10.70;99.90;;;;;;5091393;28;20226;-83
2023/10/29 04:16:26;;;;;;;10.03;9.73;;;10.70;99.90;;;;;;5088466;28;20286;-82
2023/10/29 04:18:54;;;;;;;10.00;9.70;;;10.70;99.90;;;;;;5103025;28;20217;-83
2023/10/29 04:21:21;;;;;;;10.10;9.80;;;10.70;99.90;;;;;;5084376;28;20387;-82
2023/10/29 04:23:50;;;;;;;10.10;9.80;;;10.60;99.90;;;;;;5092104;28;20230;-82
2023/10/29 04:26:17;;;;;;;10.07;9.77;;;10.60;99.90;;;;;;5090387;28;20342;-82
2023/10/29 04:28:45;;;;;;;10.10;9.80;;;10.60;99.90;;;;;;5084038;28;20238;-82
2023/10/29 04:31:12;;;;;;;10.00;9.70;;;10.60;99.90;;;;;;5085840;28;20237;-82
2023/10/29 04:33:39;;;;;;;10.00;9.70;;;10.70;99.90;;;;;;5083766;28;20257;-82
2023/10/29 04:36:07;;;;;;;9.90;9.60;;;10.70;99.90;;;;;;5085334;28;20230;-82
2023/10/29 04:38:36;;;;;;;10.07;9.77;;;10.70;99.90;;;;;;5084657;28;20233;-82
2023/10/29 04:41:05;;;;;;;10.27;9.97;;;10.70;99.90;;;;;;5083718;28;20227;-82
2023/10/29 04:43:32;;;;;;;10.00;9.70;;;10.70;99.90;;;;;;5083696;28;20264;-82
2023/10/29 04:46:00;;;;;;;10.10;9.80;;;10.70;99.90;;;;;;5083596;28;20226;-82
2023/10/29 04:48:27;;;;;;;10.00;9.70;;;10.70;99.90;;;;;;5082633;28;20379;-82
2023/10/29 04:50:54;;;;;;;10.00;9.70;;;10.60;99.90;;;;;;5082706;28;20230;-83
2023/10/29 04:53:21;;;;;;;10.00;9.70;;;10.60;99.90;;;;;;5084454;28;20299;-81
2023/10/29 04:55:48;;;;;;;9.87;9.57;;;10.60;99.90;;;;;;5086327;28;20261;-82
2023/10/29 04:58:17;;;;;;;10.07;9.77;;;10.60;99.90;;;;;;5086478;28;20246;-83
2023/10/29 05:00:44;;;;;;;10.30;10.00;;;10.50;99.90;;;;;;5086892;28;20249;-82
2023/10/29 05:03:11;;;;;;;10.13;9.83;;;10.50;99.90;;;;;;5086138;28;20238;-81
2023/10/29 05:05:38;;;;;;;10.37;10.07;;;10.50;99.90;;;;;;5086192;28;20257;-82
2023/10/29 05:08:06;;;;;;;9.90;9.60;;;10.60;99.90;;;;;;5085779;28;20268;-83
2023/10/29 05:10:33;;;;;;;9.93;9.63;;;10.60;99.90;;;;;;5086236;28;20218;-83
2023/10/29 05:13:01;;;;;;;10.00;9.70;;;10.50;99.90;;;;;;5085878;28;20238;-82
2023/10/29 05:15:30;;;;;;;10.00;9.70;;;10.50;99.90;;;;;;5089340;28;20230;-82
2023/10/29 05:17:57;;;;;;;10.00;9.70;;;10.50;99.90;;;;;;5087293;28;20239;-83
2023/10/29 05:20:24;;;;;;;10.17;9.87;;;10.40;99.90;;;;;;5086649;28;20249;-81
2023/10/29 05:22:51;;;;;;;10.10;9.80;;;10.40;99.90;;;;;;5085909;28;20297;-82
2023/10/29 05:25:18;;;;;;;10.17;9.87;;;10.40;99.90;;;;;;5086241;28;20253;-83
2023/10/29 05:27:51;;;;;;;9.93;9.63;;;10.40;99.90;;;;;;5086053;28;20222;-82
2023/10/29 05:30:18;;;;;;;9.80;9.50;;;10.30;99.90;;;;;;5086461;28;20220;-82
2023/10/29 05:32:47;;;;;;;10.10;9.80;;;10.30;99.90;;;;;;5085260;28;20238;-83
2023/10/29 05:35:15;;;;;;;9.77;9.47;;;10.20;99.90;;;;;;5085467;28;20284;-82
2023/10/29 05:37:42;;;;;;;10.10;9.80;;;10.20;99.90;;;;;;5086103;28;20222;-83
2023/10/29 05:40:10;;;;;;;10.23;9.93;;;10.20;99.90;;;;;;5085483;28;20230;-82
2023/10/29 05:42:37;;;;;;;10.23;9.93;;;10.20;99.90;;;;;;5086219;28;20230;-82
2023/10/29 05:45:06;;;;;;;10.10;9.80;;;10.20;99.90;;;;;;5085444;28;20227;-83
2023/10/29 05:47:34;;;;;;;10.10;9.80;;;10.20;99.90;;;;;;5085258;28;20237;-82
2023/10/29 05:50:04;;;;;;;10.17;9.87;;;10.20;99.90;;;;;;5085198;28;20334;-81
2023/10/29 05:52:31;;;;;;;10.40;10.10;;;10.20;99.90;;;;;;5085013;28;20300;-82
2023/10/29 05:54:59;;;;;;;10.50;10.20;;;10.20;99.90;;;;;;5085223;28;20230;-83
2023/10/29 05:57:26;;;;;;;10.40;10.10;;;10.20;99.90;;;;;;5073200;28;20292;-82
2023/10/29 05:59:53;;;;;;;10.30;10.00;;;10.20;99.90;;;;;;5077058;28;20248;-82
2023/10/29 06:02:20;;;;;;;10.43;10.13;;;10.20;99.90;;;;;;5079526;28;20270;-82
2023/10/29 06:04:47;;;;;;;10.40;10.10;;;10.20;99.90;;;;;;5083464;28;20284;-82
2023/10/29 06:07:16;;;;;;;10.30;10.00;;;10.20;99.90;;;;;;5084856;28;20238;-83
2023/10/29 06:09:43;;;;;;;10.13;9.83;;;10.20;99.90;;;;;;5086083;28;20226;-83
2023/10/29 06:12:11;;;;;;;10.40;10.10;;;10.20;99.90;;;;;;5085625;28;20260;-82
2023/10/29 06:14:38;;;;;;;10.10;9.80;;;10.20;99.90;;;;;;5085491;28;20248;-82
2023/10/29 06:17:05;;;;;;;10.10;9.80;;;10.20;99.90;;;;;;5084927;28;20257;-82
2023/10/29 06:19:33;;;;;;;10.20;9.90;;;10.20;99.90;;;;;;5084913;28;20261;-82
2023/10/29 06:22:01;;;;;;;10.00;9.70;;;10.20;99.90;;;;;;5085781;28;20244;-83
2023/10/29 06:24:29;;;;;;;10.00;9.70;;;10.20;99.90;;;;;;5085195;28;20238;-81
2023/10/29 06:26:56;;;;;;;10.10;9.80;;;10.20;99.90;;;;;;5085154;28;20264;-81
2023/10/29 06:29:24;;;;;;;10.07;9.77;;;10.10;99.90;;;;;;5085870;28;20269;-81
2023/10/29 06:31:51;;;;;;;10.00;9.70;;;10.20;99.90;;;;;;5085050;28;20249;-82
2023/10/29 06:34:19;;;;;;;10.03;9.73;;;10.20;99.90;;;;;;5084399;28;20229;-83
2023/10/29 06:36:46;;;;;;;9.93;9.63;;;10.30;99.90;;;;;;5084407;28;20222;-83
2023/10/29 06:39:14;;;;;;;10.13;9.83;;;10.40;99.90;;;;;;5085234;28;20234;-81
2023/10/29 06:41:42;;;;;;;10.00;9.70;;;10.40;99.90;;;;;;5084538;28;20265;-81
2023/10/29 06:44:09;;;;;;;10.10;9.80;;;10.40;99.90;;;;;;5089096;28;20237;-82
2023/10/29 06:46:36;;;;;;;10.10;9.80;;;10.50;99.90;;;;;;5085604;28;20223;-81
2023/10/29 06:49:04;;;;;;;10.00;9.70;;;10.40;99.90;;;;;;5077148;28;20226;-81
2023/10/29 06:51:31;;;;;;;10.10;9.80;;;10.50;99.90;;;;;;5084325;28;20261;-82
2023/10/29 06:53:58;;;;;;;10.30;10.00;;;10.50;99.90;;;;;;5088372;28;20301;-83
2023/10/29 06:56:26;;;;;;;10.30;10.00;;;10.40;99.90;;;;;;5085068;28;20234;-83
2023/10/29 06:58:55;;;;;;;10.07;9.77;;;10.50;99.90;;;;;;5084759;28;20287;-82
2023/10/29 07:01:22;;;;;;;9.80;9.50;;;10.50;99.90;;;;;;5084455;28;20230;-82
2023/10/29 07:03:49;;;;;;;10.10;9.80;;;10.50;99.90;;;;;;5084843;28;20315;-80
2023/10/29 07:06:16;;;;;;;10.00;9.70;;;10.50;99.90;;;;;;5084739;28;20226;-80
2023/10/29 07:08:45;;;;;;;10.38;10.07;;;10.50;99.90;;;;;;5086860;28;20406;-80
2023/10/29 07:11:12;;;;;;;10.00;9.70;;;10.60;99.90;;;;;;5088747;28;20226;-80
2023/10/29 07:13:39;;;;;;;9.87;9.57;;;10.70;99.90;;;;;;5090093;28;20226;-81
2023/10/29 07:16:08;;;;;;;10.17;9.87;;;10.70;99.90;;;;;;5084600;28;20234;-80
2023/10/29 07:18:36;;;;;;;10.20;9.90;;;10.70;99.90;;;;;;5084432;28;20288;-80
2023/10/29 07:21:05;;;;;;;10.00;9.70;;;10.80;99.90;;;;;;5084227;28;20257;-81
2023/10/29 07:23:32;;;;;;;10.00;9.70;;;10.70;99.90;;;;;;5082775;28;20325;-80
2023/10/29 07:25:59;;;;;;;10.13;9.83;;;10.80;99.90;;;;;;5089443;28;20245;-80
2023/10/29 07:28:28;;;;;;;9.90;9.60;;;10.80;99.90;;;;;;5082926;28;20253;-80
2023/10/29 07:30:55;;;;;;;9.97;9.67;;;10.70;99.90;;;;;;5083530;28;20265;-80
2023/10/29 07:33:24;;;;;;;10.20;9.90;;;10.80;99.90;;;;;;5085162;28;20234;-81
2023/10/29 07:35:51;;;;;;;9.80;9.50;;;10.70;99.90;;;;;;5082319;28;20339;-79
2023/10/29 07:38:18;;;;;;;9.83;9.53;;;10.80;99.90;;;;;;5088085;28;20221;-79
2023/10/29 07:40:45;;;;;;;10.00;9.70;;;10.90;99.90;;;;;;5084774;28;20230;-81
2023/10/29 07:43:12;;;;;;;10.07;9.77;;;10.90;99.90;;;;;;5083878;28;20234;-82
2023/10/29 07:45:40;;;;;;;10.10;9.80;;;10.90;99.90;;;;;;5082667;28;20253;-81
2023/10/29 07:48:07;;;;;;;9.90;9.60;;;10.90;99.90;;;;;;5082373;28;20234;-80
2023/10/29 07:50:41;;;;;;;9.87;9.57;;;11.00;99.90;;;;;;5082525;28;20254;-82
2023/10/29 07:53:08;;;;;;;9.97;9.67;;;11.00;99.90;;;;;;5082322;28;20273;-82
2023/10/29 07:55:36;;;;;;;9.87;9.57;;;11.10;99.90;;;;;;5082994;28;20321;-81
2023/10/29 07:58:03;;;;;;;9.70;9.40;;;11.10;99.90;;;;;;5086522;28;20244;-80
2023/10/29 08:00:32;;;;;;;9.77;9.47;;;11.10;99.90;;;;;;5084979;28;20252;-80
2023/10/29 08:02:59;;;;;;;9.70;9.40;;;11.10;99.90;;;;;;5083914;28;20237;-81
2023/10/29 08:05:26;;;;;;;9.90;9.60;;;11.10;99.90;;;;;;5084164;28;20250;-82
2023/10/29 08:07:55;;;;;;;9.90;9.60;;;11.10;99.90;;;;;;5083428;28;20253;-81
2023/10/29 08:10:24;;;;;;;9.70;9.40;;;11.10;99.90;;;;;;5082820;28;20241;-81
2023/10/29 08:12:51;;;;;;;9.90;9.60;;;11.10;99.90;;;;;;5082762;28;20291;-81
2023/10/29 08:15:19;;;;;;;10.00;9.70;;;11.10;99.90;;;;;;5082887;28;20244;-82
2023/10/29 08:17:46;;;;;;;9.80;9.50;;;11.10;99.90;;;;;;5083064;28;20280;-83
2023/10/29 08:20:14;;;;;;;9.90;9.60;;;11.10;99.90;;;;;;5082864;28;20222;-83
2023/10/29 08:22:42;;;;;;;10.00;9.70;;;11.10;99.90;;;;;;5083444;28;20234;-83
2023/10/29 08:25:11;;;;;;;10.10;9.80;;;11.10;99.90;;;;;;5082838;28;20214;-82
2023/10/29 08:27:38;;;;;;;9.87;9.57;;;11.10;99.90;;;;;;5084458;28;20221;-81
2023/10/29 08:30:08;;;;;;;9.90;9.60;;;11.10;99.90;;;;;;5087621;28;20265;-81
2023/10/29 08:32:35;;;;;;;10.00;9.70;;;11.20;99.90;;;;;;5086547;28;20230;-82
2023/10/29 08:35:02;;;;;;;9.90;9.60;;;11.20;99.90;;;;;;5086805;28;20238;-82
2023/10/29 08:37:29;;;;;;;9.80;9.50;;;11.30;99.90;;;;;;5086670;28;20218;-81
2023/10/29 08:39:59;;;;;;;10.20;9.90;;;11.30;99.90;;;;;;5086577;28;20230;-82
2023/10/29 08:42:28;;;;;;;9.90;9.60;;;11.50;99.90;;;;;;5086841;28;20237;-81
2023/10/29 08:44:57;;;;;;;10.17;9.87;;;11.60;99.90;;;;;;5086000;28;20305;-81
2023/10/29 08:47:24;;;;;;;10.20;9.90;;;11.70;99.90;;;;;;5085652;28;20321;-81
2023/10/29 08:49:52;;;;;;;9.97;9.67;;;11.90;99.90;;;;;;5085542;28;20242;-81
2023/10/29 08:52:19;;;;;;;10.00;9.70;;;12.10;99.90;;;;;;5085468;28;21105;-82
2023/10/29 08:54:47;;;;;;;10.13;9.83;;;12.20;99.90;;;;;;5086127;28;20226;-81
2023/10/29 08:57:14;;;;;;;10.00;9.70;;;12.40;99.90;;;;;;5085167;28;20218;-81
2023/10/29 08:59:43;;;;;;;10.07;9.77;;;12.60;99.90;;;;;;5085510;28;20321;-81
2023/10/29 09:02:10;;;;;;;10.17;9.87;;;12.80;99.90;;;;;;5085874;28;20234;-81
2023/10/29 09:04:39;;;;;;;10.20;9.90;;;13.00;99.90;;;;;;5087194;28;20234;-81
2023/10/29 09:07:07;;;;;;;9.77;9.47;;;13.20;99.90;;;;;;5086865;28;20291;-81
2023/10/29 09:09:35;;;;;;;10.10;9.80;;;13.60;99.90;;;;;;5087144;28;20230;-82
2023/10/29 09:12:02;;;;;;;10.00;9.70;;;13.90;99.90;;;;;;5089981;28;20248;-81
2023/10/29 09:14:30;;;;;;;10.20;9.90;;;14.10;99.90;;;;;;5107132;28;20229;-80
2023/10/29 09:16:58;;;;;;;10.07;9.77;;;14.30;99.90;;;;;;5107939;28;20253;-81
2023/10/29 09:19:27;;;;;;;10.00;9.70;;;14.40;99.90;;;;;;5093263;28;20317;-81
2023/10/29 09:21:54;;;;;;;10.00;9.70;;;14.50;99.90;;;;;;5086351;28;20261;-81
2023/10/29 09:24:22;;;;;;;9.90;9.60;;;14.80;99.90;;;;;;5086423;28;20226;-82
2023/10/29 09:26:49;;;;;;;10.20;9.90;;;15.10;99.90;;;;;;5085241;28;20240;-81
2023/10/29 09:29:17;;;;;;;10.40;10.10;;;15.20;99.90;;;;;;5086460;28;20222;-81
2023/10/29 09:31:44;;;;;;;9.90;9.60;;;15.30;99.90;;;;;;5086362;28;20241;-81
2023/10/29 09:34:13;;;;;;;10.10;9.80;;;15.30;99.90;;;;;;5086371;28;20226;-81
2023/10/29 09:36:42;;;;;;;9.70;9.40;;;15.30;99.90;;;;;;5087082;28;20493;-80
2023/10/29 09:39:09;;;;;;;9.70;9.40;;;15.20;99.90;;;;;;5085225;28;20294;-82
2023/10/29 09:41:39;;;;;;;10.07;9.77;;;15.20;99.90;;;;;;5087701;28;20230;-82
2023/10/29 09:44:08;;;;;;;9.90;9.60;;;15.10;99.90;;;;;;5089297;28;20257;-83
2023/10/29 09:46:37;;;;;;;9.63;9.33;;;14.90;99.90;;;;;;5089733;28;20285;-81
2023/10/29 09:49:05;;;;;;;9.90;9.60;;;14.90;99.90;;;;;;5088597;28;20222;-81
2023/10/29 09:51:34;;;;;;;9.77;9.47;;;14.70;99.90;;;;;;5086951;28;20238;-81
2023/10/29 09:54:02;;;;;;;9.90;9.60;;;14.60;99.90;;;;;;5087842;28;20233;-83
2023/10/29 09:56:30;;;;;;;9.70;9.40;;;14.40;99.90;;;;;;5089204;28;20241;-82
2023/10/29 09:58:57;;;;;;;9.60;9.30;;;14.40;99.90;;;;;;5090716;28;20244;-82
2023/10/29 10:01:24;;;;;;;9.80;9.50;;;14.40;99.90;;;;;;5089316;28;20235;-82
2023/10/29 10:03:51;;;;;;;9.77;9.47;;;14.50;99.90;;;;;;5088413;28;20237;-82
2023/10/29 10:06:18;;;;;;;10.00;9.70;;;14.60;99.90;;;;;;5088327;28;20241;-83
2023/10/29 10:08:47;;;;;;;9.82;9.52;;;14.70;99.90;;;;;;5087637;28;20254;-81
2023/10/29 10:11:22;;;;;;;10.00;9.70;;;14.80;99.90;;;;;;5088162;28;20299;-82
2023/10/29 10:13:49;;;;;;;9.63;9.33;;;14.80;99.90;;;;;;5087397;28;20237;-82
2023/10/29 10:16:19;;;;;;;9.55;9.25;;;14.80;99.90;;;;;;5088590;28;20233;-82
2023/10/29 10:18:55;;;;;;;9.50;9.20;;;14.80;99.90;;;;;;5088299;28;20277;-82
2023/10/29 10:21:25;;;;;;;9.55;9.25;;;14.80;99.90;;;;;;5088681;28;20248;-81
2023/10/29 10:23:58;;;;;;;9.55;9.25;;;15.00;99.90;;;;;;5088243;28;20311;-82
2023/10/29 10:26:30;;;;;;;9.55;9.25;;;15.10;99.90;;;;;;5089261;28;20230;-81
2023/10/29 10:28:58;;;;;;;9.60;9.30;;;15.20;99.90;;;;;;5086639;28;20252;-81
2023/10/29 10:31:27;;;;;;;9.60;9.30;;;15.30;99.90;;;;;;5085956;28;20253;-82
2023/10/29 10:34:11;;;;;;;9.48;9.18;;;15.30;99.90;;;;;;5087352;28;20230;-82
2023/10/29 10:36:38;;;;;;;9.60;9.30;;;15.30;99.90;;;;;;5088601;28;20226;-82
2023/10/29 10:39:07;;;;;;;9.73;9.43;;;15.40;99.90;;;;;;5087693;28;20237;-83
2023/10/29 10:41:43;;;;;;;9.50;9.20;;;15.40;99.90;;;;;;5088407;28;20234;-83
2023/10/29 10:44:12;;;;;;;9.50;9.20;;;15.50;99.90;;;;;;5087081;28;20230;-82
2023/10/29 10:46:45;;;;;;;9.45;9.15;;;15.40;99.90;;;;;;5087826;28;20222;-82
2023/10/29 10:49:13;;;;;;;9.50;9.20;;;15.40;99.90;;;;;;5086241;28;20244;-82
2023/10/29 10:51:41;;;;;;;9.35;9.05;;;15.30;99.90;;;;;;5085331;28;20265;-82
2023/10/29 10:54:10;;;;;;;9.48;9.18;;;15.30;99.90;;;;;;5086349;28;20222;-82
2023/10/29 10:56:38;;;;;;;9.50;9.20;;;15.20;99.90;;;;;;5085940;28;20372;-81
2023/10/29 10:59:07;;;;;;;9.25;8.95;;;15.10;99.90;;;;;;5086447;28;20234;-82
2023/10/29 11:01:36;;;;;;;9.40;9.10;;;15.10;99.90;;;;;;5086120;28;20234;-82
2023/10/29 11:04:04;;;;;;;9.18;8.88;;;15.00;99.90;;;;;;5087237;28;20234;-82
2023/10/29 11:06:32;;;;;;;9.18;8.88;;;15.00;99.90;;;;;;5087541;28;20238;-82
2023/10/29 11:09:00;;;;;;;9.30;9.00;;;15.00;99.90;;;;;;5085364;28;20257;-83
2023/10/29 11:11:35;;;;;;;9.60;9.30;;;15.10;99.90;;;;;;5085166;28;20230;-83
2023/10/29 11:14:12;;;;;;;9.80;9.50;;;15.10;99.90;;;;;;5086294;28;20379;-82
2023/10/29 11:16:50;;;;;;;9.50;9.20;;;15.10;99.90;;;;;;5085169;28;20213;-82
2023/10/29 11:19:42;;;;;;;9.70;9.40;;;15.10;99.90;;;;;;5086259;28;20222;-82
2023/10/29 11:22:21;;;;;;;9.77;9.48;;;15.00;99.90;;;;;;5086428;28;20230;-81
2023/10/29 11:25:40;;;;;;;9.40;9.10;;;15.00;99.90;;;;;;5088530;28;20278;-83
2023/10/29 11:28:45;;;;;;;9.70;9.40;;;15.00;99.90;;;;;;5086676;28;20286;-83
2023/10/29 11:31:14;;;;;;;9.50;9.20;;;15.00;99.90;;;;;;5086499;28;20267;-83
2023/10/29 11:33:42;;;;;;;9.32;9.02;;;15.00;99.90;;;;;;5085240;28;20226;-83
2023/10/29 11:36:33;;;;;;;9.45;9.15;;;14.90;99.90;;;;;;5084986;28;20222;-84
2023/10/29 11:39:31;;;;;;;9.70;9.40;;;14.90;99.90;;;;;;5084290;28;20248;-83
2023/10/29 11:41:59;;;;;;;9.70;9.40;;;14.90;99.90;;;;;;5084780;28;20333;-84
2023/10/29 11:44:29;;;;;;;9.68;9.38;;;14.90;99.90;;;;;;5085072;28;20234;-82
2023/10/29 11:47:06;;;;;;;9.65;9.35;;;15.00;99.90;;;;;;5084558;28;20272;-82
2023/10/29 11:50:16;;;;;;;9.52;9.23;;;15.00;99.90;;;;;;5085494;28;20229;-84
2023/10/29 11:52:43;;;;;;;9.30;9.00;;;15.00;99.90;;;;;;5061036;28;20268;-83
2023/10/29 11:55:13;;;;;;;9.23;8.93;;;15.00;99.90;;;;;;5089052;28;20218;-82
2023/10/29 11:57:47;;;;;;;9.43;9.13;;;14.90;99.90;;;;;;5088278;28;20248;-83
2023/10/29 12:00:17;;;;;;;9.53;9.23;;;14.90;99.90;;;;;;5088650;28;20273;-82
2023/10/29 12:02:46;;;;;;;9.52;9.23;;;14.80;99.90;;;;;;5090228;28;20233;-83
2023/10/29 12:05:16;;;;;;;9.40;9.10;;;14.80;99.90;;;;;;5082396;22;20236;-84
2023/10/29 12:07:44;;;;;;;9.50;9.20;;;14.80;99.90;;;;;;5032335;28;20232;-84
2023/10/29 12:10:26;;;;;;;9.73;9.43;;;14.60;99.90;;;;;;5031230;28;20228;-84
2023/10/29 12:15:51;;;;;;;9.67;9.37;;;14.40;99.90;;;;;;5041929;28;20223;-84
2023/10/29 12:18:34;;;;;;;9.97;9.67;;;14.40;99.90;;;;;;5042585;28;20259;-84
2023/10/29 12:21:07;;;;;;;9.77;9.47;;;14.30;99.90;;;;;;5042243;28;20206;-85
2023/10/29 12:23:36;;;;;;;9.67;9.37;;;14.30;99.90;;;;;;5041805;28;20231;-84
2023/10/29 12:26:06;;;;;;;10.00;9.70;;;14.30;99.90;;;;;;5042688;28;20259;-85
2023/10/29 12:28:34;;;;;;;9.90;9.60;;;14.30;99.90;;;;;;5047803;28;20227;-84
2023/10/29 12:33:58;;;;;;;9.60;9.30;;;14.30;99.90;;;;;;5048683;28;20239;-84
2023/10/29 12:36:28;;;;;;;9.77;9.47;;;14.30;99.90;;;;;;5045677;28;20224;-85
2023/10/29 12:39:07;;;;;;;9.40;9.10;;;14.30;99.90;;;;;;5043865;28;20231;-85
2023/10/29 12:41:35;;;;;;;9.60;9.30;;;14.30;99.90;;;;;;5043436;28;20215;-84
2023/10/29 12:44:05;;;;;;;9.63;9.33;;;14.40;99.90;;;;;;5042803;28;20257;-84
2023/10/29 12:46:53;;;;;;;9.67;9.37;;;14.40;99.90;;;;;;5048935;28;20291;-84
2023/10/29 12:49:34;;;;;;;9.57;9.27;;;14.40;99.90;;;;;;5042284;28;20220;-85
2023/10/29 12:52:09;;;;;;;9.63;9.33;;;14.40;99.90;;;;;;5042581;28;20241;-85